createdAt,value
2018-02-01T00:01:01.070Z,19.90
2018-02-01T00:02:05.960Z,19.80
2018-02-01T00:03:10.786Z,19.90
2018-02-01T00:04:15.542Z,19.80
2018-02-01T00:05:20.442Z,19.90
2018-02-01T00:06:25.360Z,19.90
2018-02-01T00:07:30.149Z,19.90
2018-02-01T00:08:34.879Z,19.80
2018-02-01T00:09:39.614Z,19.90
2018-02-01T00:10:44.331Z,19.80
2018-02-01T00:11:49.112Z,19.90
2018-02-01T00:12:53.914Z,19.80
2018-02-01T00:13:58.816Z,19.90
2018-02-01T00:15:03.789Z,19.90
2018-02-01T00:16:08.745Z,19.90
2018-02-01T00:17:13.639Z,19.90
2018-02-01T00:18:18.443Z,19.80
2018-02-01T00:19:23.501Z,19.90
2018-02-01T00:20:28.424Z,19.90
2018-02-01T00:21:33.386Z,19.80
2018-02-01T00:22:38.337Z,19.80
2018-02-01T00:23:43.218Z,19.90
2018-02-01T00:24:48.114Z,19.90
2018-02-01T00:25:53.002Z,19.90
2018-02-01T00:26:57.824Z,19.80
2018-02-01T00:28:02.689Z,19.90
2018-02-01T00:29:07.751Z,19.80
2018-02-01T00:30:12.619Z,19.90
2018-02-01T00:31:17.499Z,19.90
2018-02-01T00:32:22.186Z,19.90
2018-02-01T00:33:27.799Z,19.80
2018-02-01T00:34:32.752Z,19.90
2018-02-01T00:35:37.522Z,19.80
2018-02-01T00:36:42.457Z,19.90
2018-02-01T00:37:47.187Z,19.90
2018-02-01T00:38:52.037Z,19.90
2018-02-01T00:39:57.043Z,19.80
2018-02-01T00:41:02.146Z,19.80
2018-02-01T00:42:07.064Z,19.80
2018-02-01T00:43:11.812Z,19.90
2018-02-01T00:44:16.780Z,19.80
2018-02-01T00:45:22.212Z,19.90
2018-02-01T00:46:26.975Z,19.90
2018-02-01T00:47:32.058Z,19.90
2018-02-01T00:48:36.832Z,19.90
2018-02-01T00:49:41.612Z,19.90
2018-02-01T00:50:46.516Z,19.90
2018-02-01T00:51:51.523Z,19.90
2018-02-01T00:52:56.332Z,19.90
2018-02-01T00:54:01.031Z,19.90
2018-02-01T00:55:05.936Z,19.80
2018-02-01T00:56:10.865Z,19.80
2018-02-01T00:57:15.647Z,19.80
2018-02-01T00:58:20.488Z,19.90
2018-02-01T00:59:25.279Z,19.80
2018-02-01T01:00:30.065Z,19.90
2018-02-01T01:01:34.990Z,19.80
2018-02-01T01:02:39.930Z,19.80
2018-02-01T01:03:44.767Z,19.90
2018-02-01T01:04:49.608Z,19.90
2018-02-01T01:05:54.812Z,19.90
2018-02-01T01:06:59.621Z,19.90
2018-02-01T01:08:04.578Z,19.80
2018-02-01T01:09:09.479Z,19.90
2018-02-01T01:10:14.403Z,19.90
2018-02-01T01:11:19.365Z,19.80
2018-02-01T01:12:24.195Z,19.80
2018-02-01T01:13:29.104Z,19.80
2018-02-01T01:14:34.303Z,19.90
2018-02-01T01:15:39.103Z,19.80
2018-02-01T01:16:43.878Z,19.80
2018-02-01T01:17:48.736Z,19.90
2018-02-01T01:18:53.521Z,19.80
2018-02-01T01:19:58.285Z,19.80
2018-02-01T01:21:03.086Z,19.90
2018-02-01T01:22:08.010Z,19.90
2018-02-01T01:23:12.903Z,19.80
2018-02-01T01:24:18.576Z,19.90
2018-02-01T01:25:23.522Z,19.80
2018-02-01T01:26:28.432Z,19.80
2018-02-01T01:27:33.478Z,19.90
2018-02-01T01:28:38.412Z,19.80
2018-02-01T01:29:43.337Z,19.90
2018-02-01T01:30:48.291Z,19.80
2018-02-01T01:31:53.202Z,19.90
2018-02-01T01:32:58.069Z,19.90
2018-02-01T01:34:02.894Z,19.90
2018-02-01T01:35:08.281Z,19.90
2018-02-01T01:36:13.058Z,19.90
2018-02-01T01:37:18.013Z,19.90
2018-02-01T01:38:23.537Z,19.90
2018-02-01T01:39:28.731Z,19.80
2018-02-01T01:40:33.646Z,19.90
2018-02-01T01:41:38.373Z,19.80
2018-02-01T01:42:43.399Z,19.80
2018-02-01T01:43:48.332Z,19.90
2018-02-01T01:44:53.078Z,19.90
2018-02-01T01:45:57.886Z,19.80
2018-02-01T01:47:02.779Z,19.80
2018-02-01T01:48:07.641Z,19.90
2018-02-01T01:49:12.664Z,19.80
2018-02-01T01:50:17.612Z,19.90
2018-02-01T01:51:22.720Z,19.80
2018-02-01T01:52:27.582Z,19.90
2018-02-01T01:53:32.407Z,19.80
2018-02-01T01:54:37.227Z,19.80
2018-02-01T01:55:42.087Z,19.80
2018-02-01T01:56:47.071Z,19.90
2018-02-01T01:57:51.936Z,19.80
2018-02-01T01:58:56.822Z,19.80
2018-02-01T02:00:01.767Z,19.80
2018-02-01T02:01:06.931Z,19.80
2018-02-01T02:02:11.639Z,19.80
2018-02-01T02:03:16.501Z,19.80
2018-02-01T02:04:21.262Z,19.80
2018-02-01T02:05:26.491Z,19.80
2018-02-01T02:06:31.389Z,19.80
2018-02-01T02:07:36.336Z,19.80
2018-02-01T02:08:41.300Z,19.80
2018-02-01T02:09:46.267Z,19.80
2018-02-01T02:10:51.061Z,19.80
2018-02-01T02:11:55.835Z,19.90
2018-02-01T02:13:00.743Z,19.80
2018-02-01T02:14:05.664Z,19.80
2018-02-01T02:15:10.589Z,19.80
2018-02-01T02:16:15.616Z,19.80
2018-02-01T02:17:20.591Z,19.80
2018-02-01T02:18:25.415Z,19.80
2018-02-01T02:19:30.676Z,19.90
2018-02-01T02:20:35.747Z,19.80
2018-02-01T02:21:40.527Z,19.80
2018-02-01T02:22:45.965Z,19.80
2018-02-01T02:23:50.817Z,19.80
2018-02-01T02:24:55.814Z,19.80
2018-02-01T02:26:00.757Z,19.80
2018-02-01T02:27:05.787Z,19.80
2018-02-01T02:28:10.746Z,19.80
2018-02-01T02:29:15.714Z,19.80
2018-02-01T02:30:20.605Z,19.80
2018-02-01T02:31:25.392Z,19.80
2018-02-01T02:32:30.215Z,19.80
2018-02-01T02:33:35.519Z,19.80
2018-02-01T02:34:40.484Z,19.80
2018-02-01T02:35:45.258Z,19.80
2018-02-01T02:36:50.022Z,19.80
2018-02-01T02:37:55.059Z,19.80
2018-02-01T02:38:59.932Z,19.80
2018-02-01T02:40:04.742Z,19.80
2018-02-01T02:41:09.646Z,19.80
2018-02-01T02:42:14.584Z,19.80
2018-02-01T02:43:19.519Z,19.80
2018-02-01T02:44:24.494Z,19.80
2018-02-01T02:45:29.502Z,19.80
2018-02-01T02:46:34.439Z,19.80
2018-02-01T02:47:39.338Z,19.80
2018-02-01T02:48:44.330Z,19.80
2018-02-01T02:49:49.258Z,19.80
2018-02-01T02:50:54.038Z,19.80
2018-02-01T02:51:59.070Z,19.80
2018-02-01T02:53:03.975Z,19.80
2018-02-01T02:54:08.907Z,19.80
2018-02-01T02:55:13.740Z,19.80
2018-02-01T02:56:18.794Z,19.80
2018-02-01T02:57:23.745Z,19.80
2018-02-01T02:58:28.662Z,19.80
2018-02-01T02:59:33.542Z,19.80
2018-02-01T03:00:38.476Z,19.80
2018-02-01T03:01:43.388Z,19.80
2018-02-01T03:02:48.598Z,19.80
2018-02-01T03:03:53.482Z,19.80
2018-02-01T03:04:58.248Z,19.80
2018-02-01T03:06:03.255Z,19.80
2018-02-01T03:07:08.195Z,19.80
2018-02-01T03:08:13.076Z,19.80
2018-02-01T03:09:17.820Z,19.80
2018-02-01T03:10:22.599Z,19.80
2018-02-01T03:11:27.663Z,19.80
2018-02-01T03:12:32.458Z,19.80
2018-02-01T03:13:37.189Z,19.80
2018-02-01T03:14:42.531Z,19.80
2018-02-01T03:15:47.309Z,19.80
2018-02-01T03:16:52.040Z,19.80
2018-02-01T03:17:56.786Z,19.80
2018-02-01T03:19:01.625Z,19.80
2018-02-01T03:20:06.475Z,19.80
2018-02-01T03:21:11.290Z,19.80
2018-02-01T03:22:16.197Z,19.80
2018-02-01T03:23:20.903Z,19.80
2018-02-01T03:24:25.732Z,19.80
2018-02-01T03:25:30.425Z,19.80
2018-02-01T03:26:35.322Z,19.80
2018-02-01T03:27:40.937Z,19.80
2018-02-01T03:28:45.890Z,19.80
2018-02-01T03:29:50.832Z,19.80
2018-02-01T03:30:55.646Z,19.80
2018-02-01T03:32:00.494Z,19.80
2018-02-01T03:33:05.984Z,19.80
2018-02-01T03:34:11.012Z,19.80
2018-02-01T03:35:15.877Z,19.80
2018-02-01T03:36:20.755Z,19.80
2018-02-01T03:37:25.575Z,19.80
2018-02-01T03:38:30.431Z,19.80
2018-02-01T03:39:35.209Z,19.80
2018-02-01T03:40:40.167Z,19.80
2018-02-01T03:41:44.957Z,19.80
2018-02-01T03:42:49.881Z,19.80
2018-02-01T03:43:54.779Z,19.80
2018-02-01T03:44:59.571Z,19.80
2018-02-01T03:46:04.450Z,19.80
2018-02-01T03:47:09.299Z,19.80
2018-02-01T03:48:14.119Z,19.80
2018-02-01T03:49:18.996Z,19.80
2018-02-01T03:50:23.760Z,19.80
2018-02-01T03:51:29.298Z,19.80
2018-02-01T03:52:34.275Z,19.80
2018-02-01T03:53:39.177Z,19.80
2018-02-01T03:54:44.762Z,19.80
2018-02-01T03:55:50.430Z,19.80
2018-02-01T03:56:55.191Z,19.80
2018-02-01T03:57:59.952Z,19.80
2018-02-01T03:59:04.700Z,19.80
2018-02-01T04:00:09.669Z,19.80
2018-02-01T04:01:14.423Z,19.80
2018-02-01T04:02:19.211Z,19.80
2018-02-01T04:03:23.968Z,19.80
2018-02-01T04:04:28.846Z,19.80
2018-02-01T04:05:33.692Z,19.80
2018-02-01T04:06:38.463Z,19.80
2018-02-01T04:07:43.447Z,19.80
2018-02-01T04:08:48.193Z,19.80
2018-02-01T04:09:53.804Z,19.80
2018-02-01T04:10:58.697Z,19.80
2018-02-01T04:12:03.625Z,19.80
2018-02-01T04:13:08.581Z,19.80
2018-02-01T04:14:13.704Z,19.80
2018-02-01T04:15:18.553Z,19.80
2018-02-01T04:16:23.461Z,19.80
2018-02-01T04:17:28.249Z,19.80
2018-02-01T04:18:33.127Z,19.80
2018-02-01T04:19:38.039Z,19.80
2018-02-01T04:20:42.811Z,19.80
2018-02-01T04:21:47.690Z,19.80
2018-02-01T04:22:55.456Z,19.80
2018-02-01T04:24:00.357Z,19.80
2018-02-01T04:25:05.293Z,19.80
2018-02-01T04:26:10.151Z,19.80
2018-02-01T04:27:15.637Z,19.80
2018-02-01T04:28:20.444Z,19.80
2018-02-01T04:29:25.231Z,19.80
2018-02-01T04:30:30.029Z,19.80
2018-02-01T04:31:34.787Z,19.80
2018-02-01T04:32:39.710Z,19.80
2018-02-01T04:33:44.495Z,19.80
2018-02-01T04:34:50.198Z,19.80
2018-02-01T04:35:55.180Z,19.80
2018-02-01T04:37:00.118Z,19.80
2018-02-01T04:38:05.121Z,19.80
2018-02-01T04:39:10.009Z,19.80
2018-02-01T04:40:14.956Z,19.80
2018-02-01T04:41:19.907Z,19.80
2018-02-01T04:42:24.782Z,19.70
2018-02-01T04:43:29.769Z,19.80
2018-02-01T04:44:34.736Z,19.80
2018-02-01T04:45:39.585Z,19.80
2018-02-01T04:46:44.606Z,19.80
2018-02-01T04:47:49.576Z,19.80
2018-02-01T04:48:54.798Z,19.80
2018-02-01T04:49:59.644Z,19.80
2018-02-01T04:51:04.680Z,19.80
2018-02-01T04:52:09.592Z,19.80
2018-02-01T04:53:14.568Z,19.80
2018-02-01T04:54:19.504Z,19.80
2018-02-01T04:55:24.457Z,19.80
2018-02-01T04:56:29.334Z,19.80
2018-02-01T04:57:34.125Z,19.80
2018-02-01T04:58:39.024Z,19.80
2018-02-01T04:59:43.988Z,19.80
2018-02-01T05:00:48.879Z,19.80
2018-02-01T05:01:53.674Z,19.80
2018-02-01T05:02:58.483Z,19.80
2018-02-01T05:04:03.375Z,19.80
2018-02-01T05:05:08.450Z,19.80
2018-02-01T05:06:13.454Z,19.80
2018-02-01T05:07:18.412Z,19.80
2018-02-01T05:08:23.358Z,19.80
2018-02-01T05:09:28.188Z,19.80
2018-02-01T05:10:33.293Z,19.80
2018-02-01T05:11:38.155Z,19.80
2018-02-01T05:12:43.074Z,19.80
2018-02-01T05:13:47.867Z,19.80
2018-02-01T05:14:52.819Z,19.80
2018-02-01T05:15:57.992Z,19.80
2018-02-01T05:17:02.821Z,19.80
2018-02-01T05:18:07.622Z,19.80
2018-02-01T05:19:12.430Z,19.70
2018-02-01T05:20:17.355Z,19.80
2018-02-01T05:21:22.413Z,19.80
2018-02-01T05:22:27.224Z,19.80
2018-02-01T05:23:32.271Z,19.80
2018-02-01T05:24:37.247Z,19.80
2018-02-01T05:25:42.001Z,19.80
2018-02-01T05:26:46.821Z,19.80
2018-02-01T05:27:51.798Z,19.80
2018-02-01T05:28:56.820Z,19.80
2018-02-01T05:30:01.723Z,19.80
2018-02-01T05:31:06.695Z,19.80
2018-02-01T05:32:11.589Z,19.80
2018-02-01T05:33:16.500Z,19.80
2018-02-01T05:34:21.414Z,19.80
2018-02-01T05:35:26.278Z,19.80
2018-02-01T05:36:31.255Z,19.80
2018-02-01T05:37:36.152Z,19.80
2018-02-01T05:38:40.950Z,19.80
2018-02-01T05:39:45.840Z,19.80
2018-02-01T05:40:50.605Z,19.80
2018-02-01T05:41:55.718Z,19.80
2018-02-01T05:43:00.933Z,19.80
2018-02-01T05:44:05.871Z,19.80
2018-02-01T05:45:10.674Z,19.80
2018-02-01T05:46:15.690Z,19.80
2018-02-01T05:47:20.553Z,19.80
2018-02-01T05:48:25.545Z,19.80
2018-02-01T05:49:30.256Z,19.80
2018-02-01T05:50:35.182Z,19.80
2018-02-01T05:51:39.973Z,19.80
2018-02-01T05:52:45.027Z,19.80
2018-02-01T05:53:49.817Z,19.80
2018-02-01T05:54:54.626Z,19.80
2018-02-01T05:55:59.677Z,19.80
2018-02-01T05:57:04.728Z,19.80
2018-02-01T05:58:09.709Z,19.80
2018-02-01T05:59:14.617Z,19.80
2018-02-01T06:00:20.288Z,19.80
2018-02-01T06:01:25.149Z,19.80
2018-02-01T06:02:29.984Z,19.80
2018-02-01T06:03:34.945Z,19.80
2018-02-01T06:04:39.739Z,19.80
2018-02-01T06:05:46.917Z,19.80
2018-02-01T06:06:52.363Z,19.80
2018-02-01T06:07:57.189Z,19.80
2018-02-01T06:09:02.179Z,19.70
2018-02-01T06:10:07.757Z,19.80
2018-02-01T06:11:12.794Z,19.80
2018-02-01T06:12:17.634Z,19.80
2018-02-01T06:13:22.422Z,19.80
2018-02-01T06:14:27.429Z,19.80
2018-02-01T06:15:32.383Z,19.80
2018-02-01T06:16:37.595Z,19.80
2018-02-01T06:17:42.403Z,19.80
2018-02-01T06:18:47.428Z,19.90
2018-02-01T06:19:52.276Z,19.90
2018-02-01T06:20:57.139Z,19.80
2018-02-01T06:22:02.154Z,19.80
2018-02-01T06:23:07.060Z,19.80
2018-02-01T06:24:11.898Z,19.90
2018-02-01T06:25:16.765Z,19.80
2018-02-01T06:26:21.604Z,19.80
2018-02-01T06:27:26.597Z,19.80
2018-02-01T06:28:31.397Z,19.80
2018-02-01T06:29:36.835Z,19.90
2018-02-01T06:30:41.797Z,19.90
2018-02-01T06:31:46.795Z,19.90
2018-02-01T06:32:51.657Z,19.80
2018-02-01T06:33:56.589Z,19.50
2018-02-01T06:35:02.107Z,19.30
2018-02-01T06:36:07.802Z,19.00
2018-02-01T06:37:12.729Z,18.80
2018-02-01T06:38:17.526Z,18.70
2018-02-01T06:39:22.740Z,18.60
2018-02-01T06:40:27.532Z,18.40
2018-02-01T06:41:32.375Z,18.30
2018-02-01T06:42:37.195Z,18.20
2018-02-01T06:43:42.040Z,18.10
2018-02-01T06:44:46.945Z,18.00
2018-02-01T06:45:51.993Z,18.00
2018-02-01T06:46:57.024Z,17.90
2018-02-01T06:48:02.069Z,17.90
2018-02-01T06:49:07.465Z,17.90
2018-02-01T06:50:12.466Z,18.00
2018-02-01T06:51:17.469Z,18.10
2018-02-01T06:52:23.215Z,18.20
2018-02-01T06:53:28.195Z,18.30
2018-02-01T06:54:33.186Z,18.40
2018-02-01T06:55:37.997Z,18.50
2018-02-01T06:56:43.270Z,18.50
2018-02-01T06:57:48.140Z,18.60
2018-02-01T06:58:53.119Z,18.70
2018-02-01T06:59:58.025Z,18.70
2018-02-01T07:01:02.962Z,18.80
2018-02-01T07:02:07.979Z,18.90
2018-02-01T07:03:12.931Z,18.90
2018-02-01T07:04:17.836Z,18.90
2018-02-01T07:05:22.711Z,19.00
2018-02-01T07:06:27.607Z,19.00
2018-02-01T07:07:32.540Z,19.10
2018-02-01T07:08:37.605Z,19.10
2018-02-01T07:09:42.670Z,19.10
2018-02-01T07:10:48.841Z,19.20
2018-02-01T07:11:54.043Z,19.30
2018-02-01T07:12:59.048Z,19.30
2018-02-01T07:14:04.125Z,19.30
2018-02-01T07:15:09.091Z,19.30
2018-02-01T07:16:14.119Z,19.40
2018-02-01T07:17:19.150Z,19.40
2018-02-01T07:18:24.188Z,19.40
2018-02-01T07:19:29.211Z,19.50
2018-02-01T07:20:34.223Z,19.50
2018-02-01T07:21:39.275Z,19.50
2018-02-01T07:22:44.193Z,19.50
2018-02-01T07:23:49.195Z,19.60
2018-02-01T07:24:54.084Z,19.60
2018-02-01T07:25:58.927Z,19.60
2018-02-01T07:27:04.063Z,19.60
2018-02-01T07:28:08.938Z,19.70
2018-02-01T07:29:14.514Z,19.60
2018-02-01T07:30:19.599Z,19.70
2018-02-01T07:31:24.606Z,19.70
2018-02-01T07:32:29.511Z,19.70
2018-02-01T07:33:34.430Z,19.70
2018-02-01T07:34:39.312Z,19.70
2018-02-01T07:35:44.171Z,19.80
2018-02-01T07:36:49.009Z,19.80
2018-02-01T07:37:53.958Z,19.70
2018-02-01T07:38:58.771Z,19.70
2018-02-01T07:40:04.085Z,19.80
2018-02-01T07:41:08.959Z,19.80
2018-02-01T07:42:13.751Z,19.80
2018-02-01T07:43:18.603Z,19.80
2018-02-01T07:44:23.454Z,19.80
2018-02-01T07:45:28.317Z,19.80
2018-02-01T07:46:33.059Z,19.90
2018-02-01T07:47:38.157Z,19.80
2018-02-01T07:48:42.934Z,19.80
2018-02-01T07:49:47.813Z,19.90
2018-02-01T07:50:52.801Z,19.90
2018-02-01T07:51:57.674Z,19.90
2018-02-01T07:53:02.732Z,19.90
2018-02-01T07:54:07.517Z,19.90
2018-02-01T07:55:12.512Z,19.90
2018-02-01T07:56:17.600Z,19.90
2018-02-01T07:57:22.608Z,19.90
2018-02-01T07:58:27.650Z,19.90
2018-02-01T07:59:32.623Z,20.00
2018-02-01T08:00:37.714Z,19.90
2018-02-01T08:01:42.758Z,19.90
2018-02-01T08:02:47.657Z,19.90
2018-02-01T08:03:52.423Z,19.90
2018-02-01T08:04:57.277Z,19.90
2018-02-01T08:06:02.166Z,19.90
2018-02-01T08:07:07.089Z,19.90
2018-02-01T08:08:12.027Z,19.90
2018-02-01T08:09:17.528Z,19.90
2018-02-01T08:10:22.407Z,19.90
2018-02-01T08:11:27.217Z,19.90
2018-02-01T08:12:32.081Z,19.90
2018-02-01T08:13:37.039Z,19.90
2018-02-01T08:14:41.864Z,19.90
2018-02-01T08:15:46.741Z,19.90
2018-02-01T08:16:51.586Z,19.80
2018-02-01T08:17:56.472Z,19.80
2018-02-01T08:19:01.386Z,19.80
2018-02-01T08:20:06.221Z,19.90
2018-02-01T08:21:11.144Z,19.90
2018-02-01T08:22:16.067Z,19.90
2018-02-01T08:23:20.953Z,19.90
2018-02-01T08:24:25.721Z,19.80
2018-02-01T08:25:30.543Z,19.90
2018-02-01T08:26:35.322Z,19.90
2018-02-01T08:27:40.192Z,19.90
2018-02-01T08:28:45.062Z,19.90
2018-02-01T08:29:49.807Z,19.90
2018-02-01T08:30:54.703Z,19.90
2018-02-01T08:31:59.476Z,19.90
2018-02-01T08:33:04.334Z,19.90
2018-02-01T08:34:09.862Z,19.90
2018-02-01T08:35:14.622Z,19.90
2018-02-01T08:36:19.399Z,19.90
2018-02-01T08:37:24.150Z,19.80
2018-02-01T08:38:29.019Z,19.90
2018-02-01T08:39:33.876Z,19.80
2018-02-01T08:40:38.710Z,19.90
2018-02-01T08:41:43.634Z,19.90
2018-02-01T08:42:48.466Z,19.90
2018-02-01T08:43:53.333Z,19.90
2018-02-01T08:44:58.051Z,19.80
2018-02-01T08:46:02.796Z,19.90
2018-02-01T08:47:07.550Z,19.80
2018-02-01T08:48:12.278Z,19.90
2018-02-01T08:49:17.022Z,19.90
2018-02-01T08:50:21.947Z,19.80
2018-02-01T08:51:26.842Z,19.90
2018-02-01T08:52:31.640Z,19.90
2018-02-01T08:53:36.537Z,19.80
2018-02-01T08:54:41.298Z,19.90
2018-02-01T08:55:46.186Z,19.80
2018-02-01T08:56:51.111Z,19.80
2018-02-01T08:57:56.325Z,19.80
2018-02-01T08:59:01.072Z,19.90
2018-02-01T09:00:05.807Z,19.80
2018-02-01T09:01:10.702Z,19.80
2018-02-01T09:02:15.550Z,19.80
2018-02-01T09:03:20.402Z,19.90
2018-02-01T09:04:25.204Z,19.80
2018-02-01T09:05:29.982Z,19.90
2018-02-01T09:06:34.844Z,19.90
2018-02-01T09:07:39.760Z,19.90
2018-02-01T09:08:44.664Z,19.90
2018-02-01T09:09:49.566Z,19.90
2018-02-01T09:10:54.461Z,19.80
2018-02-01T09:11:59.279Z,19.80
2018-02-01T09:13:04.063Z,19.80
2018-02-01T09:14:08.853Z,19.90
2018-02-01T09:15:13.762Z,19.90
2018-02-01T09:16:18.728Z,19.90
2018-02-01T09:17:23.527Z,19.90
2018-02-01T09:18:28.453Z,19.90
2018-02-01T09:19:33.270Z,19.80
2018-02-01T09:20:38.258Z,19.90
2018-02-01T09:21:43.200Z,19.90
2018-02-01T09:22:48.151Z,19.90
2018-02-01T09:23:52.922Z,19.80
2018-02-01T09:24:57.729Z,19.80
2018-02-01T09:26:02.658Z,19.90
2018-02-01T09:27:07.598Z,19.90
2018-02-01T09:28:12.537Z,19.80
2018-02-01T09:29:17.362Z,19.80
2018-02-01T09:30:22.262Z,19.80
2018-02-01T09:31:27.024Z,19.90
2018-02-01T09:32:31.829Z,19.80
2018-02-01T09:33:36.636Z,19.80
2018-02-01T09:34:41.597Z,19.80
2018-02-01T09:35:46.469Z,19.90
2018-02-01T09:36:51.399Z,19.80
2018-02-01T09:37:56.325Z,19.90
2018-02-01T09:39:01.241Z,19.90
2018-02-01T09:40:06.046Z,19.90
2018-02-01T09:41:10.831Z,19.90
2018-02-01T09:42:15.780Z,19.80
2018-02-01T09:43:20.568Z,19.80
2018-02-01T09:44:25.469Z,19.80
2018-02-01T09:45:30.284Z,19.80
2018-02-01T09:46:35.275Z,19.80
2018-02-01T09:47:40.194Z,19.80
2018-02-01T09:48:45.204Z,19.80
2018-02-01T09:49:50.220Z,19.90
2018-02-01T09:50:55.020Z,19.80
2018-02-01T09:51:59.912Z,19.90
2018-02-01T09:53:04.825Z,19.80
2018-02-01T09:54:09.673Z,19.90
2018-02-01T09:55:14.472Z,19.90
2018-02-01T09:56:19.251Z,19.80
2018-02-01T09:57:24.184Z,19.90
2018-02-01T09:58:28.955Z,19.90
2018-02-01T09:59:33.762Z,19.80
2018-02-01T10:00:38.692Z,19.80
2018-02-01T10:01:43.458Z,19.80
2018-02-01T10:02:48.285Z,19.90
2018-02-01T10:03:53.087Z,19.80
2018-02-01T10:04:57.984Z,19.80
2018-02-01T10:06:02.804Z,19.80
2018-02-01T10:07:07.637Z,19.90
2018-02-01T10:08:12.503Z,19.90
2018-02-01T10:09:17.310Z,19.90
2018-02-01T10:10:22.237Z,19.80
2018-02-01T10:11:27.132Z,19.90
2018-02-01T10:12:31.988Z,19.80
2018-02-01T10:13:37.003Z,19.80
2018-02-01T10:14:41.819Z,19.90
2018-02-01T10:15:46.859Z,19.80
2018-02-01T10:16:51.636Z,19.80
2018-02-01T10:17:56.615Z,19.80
2018-02-01T10:19:01.435Z,19.80
2018-02-01T10:20:06.252Z,19.80
2018-02-01T10:21:11.019Z,19.80
2018-02-01T10:22:15.851Z,19.80
2018-02-01T10:23:20.709Z,19.80
2018-02-01T10:24:26.233Z,19.80
2018-02-01T10:25:31.086Z,19.80
2018-02-01T10:26:36.036Z,19.80
2018-02-01T10:27:40.874Z,19.80
2018-02-01T10:28:45.831Z,19.80
2018-02-01T10:29:50.734Z,19.80
2018-02-01T10:30:55.626Z,19.80
2018-02-01T10:32:00.443Z,19.80
2018-02-01T10:33:05.362Z,19.80
2018-02-01T10:34:10.284Z,19.80
2018-02-01T10:35:15.061Z,19.80
2018-02-01T10:36:19.876Z,19.80
2018-02-01T10:37:24.682Z,19.80
2018-02-01T10:38:29.496Z,19.80
2018-02-01T10:39:34.426Z,19.80
2018-02-01T10:40:39.334Z,19.80
2018-02-01T10:41:44.259Z,19.80
2018-02-01T10:42:49.125Z,19.80
2018-02-01T10:43:54.068Z,19.80
2018-02-01T10:44:59.018Z,19.80
2018-02-01T10:46:03.879Z,19.80
2018-02-01T10:47:08.707Z,19.80
2018-02-01T10:48:13.502Z,19.80
2018-02-01T10:49:18.405Z,19.80
2018-02-01T10:50:23.288Z,19.80
2018-02-01T10:51:28.186Z,19.80
2018-02-01T10:52:33.154Z,19.80
2018-02-01T10:53:38.009Z,19.80
2018-02-01T10:54:42.934Z,19.80
2018-02-01T10:55:47.801Z,19.80
2018-02-01T10:56:52.577Z,19.80
2018-02-01T10:57:57.503Z,19.80
2018-02-01T10:59:02.511Z,19.80
2018-02-01T11:00:07.464Z,19.80
2018-02-01T11:01:12.347Z,19.80
2018-02-01T11:02:17.199Z,19.80
2018-02-01T11:03:22.069Z,19.80
2018-02-01T11:04:27.025Z,19.80
2018-02-01T11:05:32.056Z,19.80
2018-02-01T11:06:36.922Z,19.80
2018-02-01T11:07:41.742Z,19.80
2018-02-01T11:08:46.536Z,19.80
2018-02-01T11:09:51.475Z,19.80
2018-02-01T11:10:56.277Z,19.80
2018-02-01T11:12:01.117Z,19.80
2018-02-01T11:13:05.915Z,19.80
2018-02-01T11:14:10.679Z,19.80
2018-02-01T11:15:15.467Z,19.80
2018-02-01T11:16:20.324Z,19.90
2018-02-01T11:17:25.090Z,19.80
2018-02-01T11:18:30.020Z,19.80
2018-02-01T11:19:34.908Z,19.80
2018-02-01T11:20:39.680Z,19.80
2018-02-01T11:21:44.434Z,19.80
2018-02-01T11:22:49.298Z,19.80
2018-02-01T11:23:54.064Z,19.80
2018-02-01T11:24:58.893Z,19.80
2018-02-01T11:26:03.878Z,19.80
2018-02-01T11:27:08.663Z,19.80
2018-02-01T11:28:13.632Z,19.80
2018-02-01T11:29:18.699Z,19.80
2018-02-01T11:30:23.769Z,19.80
2018-02-01T11:31:28.580Z,19.80
2018-02-01T11:32:33.496Z,19.80
2018-02-01T11:33:38.396Z,19.80
2018-02-01T11:34:43.509Z,19.80
2018-02-01T11:35:48.451Z,19.80
2018-02-01T11:36:53.417Z,19.80
2018-02-01T11:37:58.248Z,19.80
2018-02-01T11:39:03.132Z,19.80
2018-02-01T11:40:07.913Z,19.80
2018-02-01T11:41:12.690Z,19.80
2018-02-01T11:42:17.686Z,19.80
2018-02-01T11:43:22.678Z,19.80
2018-02-01T11:44:27.527Z,19.80
2018-02-01T11:45:32.363Z,19.80
2018-02-01T11:46:37.401Z,19.80
2018-02-01T11:47:42.218Z,19.80
2018-02-01T11:48:47.005Z,19.80
2018-02-01T11:49:51.908Z,19.80
2018-02-01T11:50:56.722Z,19.80
2018-02-01T11:52:01.628Z,19.80
2018-02-01T11:53:06.439Z,19.80
2018-02-01T11:54:11.339Z,19.80
2018-02-01T11:55:16.468Z,19.80
2018-02-01T11:56:21.421Z,19.80
2018-02-01T11:57:26.313Z,19.80
2018-02-01T11:58:31.262Z,19.80
2018-02-01T11:59:36.012Z,19.80
2018-02-01T12:00:40.957Z,19.80
2018-02-01T12:01:45.773Z,19.80
2018-02-01T12:02:50.640Z,19.80
2018-02-01T12:03:55.405Z,19.80
2018-02-01T12:05:00.535Z,19.80
2018-02-01T12:06:05.447Z,19.80
2018-02-01T12:07:10.225Z,19.80
2018-02-01T12:08:15.188Z,19.80
2018-02-01T12:09:20.222Z,19.80
2018-02-01T12:10:24.984Z,19.80
2018-02-01T12:11:29.891Z,19.80
2018-02-01T12:12:34.820Z,19.80
2018-02-01T12:13:39.709Z,19.80
2018-02-01T12:14:44.520Z,19.80
2018-02-01T12:15:49.423Z,19.80
2018-02-01T12:16:54.323Z,19.80
2018-02-01T12:17:59.155Z,19.80
2018-02-01T12:19:04.056Z,19.80
2018-02-01T12:20:08.910Z,19.70
2018-02-01T12:21:13.901Z,19.70
2018-02-01T12:22:18.755Z,19.70
2018-02-01T12:23:23.777Z,19.70
2018-02-01T12:24:29.001Z,19.80
2018-02-01T12:25:33.822Z,19.70
2018-02-01T12:26:38.779Z,19.80
2018-02-01T12:27:43.842Z,19.80
2018-02-01T12:28:48.775Z,19.80
2018-02-01T12:29:53.585Z,19.80
2018-02-01T12:30:58.540Z,19.80
2018-02-01T12:32:03.457Z,19.80
2018-02-01T12:33:08.327Z,19.80
2018-02-01T12:34:13.233Z,19.80
2018-02-01T12:35:18.147Z,19.80
2018-02-01T12:36:23.123Z,19.70
2018-02-01T12:37:28.081Z,19.80
2018-02-01T12:38:32.948Z,19.80
2018-02-01T12:39:37.774Z,19.80
2018-02-01T12:40:42.626Z,19.90
2018-02-01T12:41:48.486Z,19.80
2018-02-01T12:42:53.226Z,19.80
2018-02-01T12:43:58.152Z,19.80
2018-02-01T12:45:03.107Z,19.80
2018-02-01T12:46:08.783Z,19.80
2018-02-01T12:47:14.262Z,19.80
2018-02-01T12:48:20.516Z,19.80
2018-02-01T12:49:25.555Z,19.80
2018-02-01T12:50:30.515Z,19.80
2018-02-01T12:51:35.575Z,19.80
2018-02-01T12:52:40.526Z,19.80
2018-02-01T12:53:45.386Z,19.80
2018-02-01T12:54:51.132Z,19.80
2018-02-01T12:55:56.122Z,19.80
2018-02-01T12:57:01.004Z,19.80
2018-02-01T12:58:06.157Z,19.80
2018-02-01T12:59:11.159Z,19.80
2018-02-01T13:00:16.045Z,19.80
2018-02-01T13:01:20.924Z,19.70
2018-02-01T13:02:25.729Z,19.80
2018-02-01T13:03:30.857Z,19.80
2018-02-01T13:04:36.338Z,19.80
2018-02-01T13:05:41.314Z,19.80
2018-02-01T13:06:46.397Z,19.80
2018-02-01T13:07:51.245Z,19.80
2018-02-01T13:08:56.941Z,19.70
2018-02-01T13:10:01.973Z,19.80
2018-02-01T13:11:06.744Z,19.80
2018-02-01T13:12:11.637Z,19.70
2018-02-01T13:13:16.586Z,19.80
2018-02-01T13:14:21.497Z,19.80
2018-02-01T13:15:26.419Z,19.70
2018-02-01T13:16:31.509Z,19.70
2018-02-01T13:17:36.686Z,19.80
2018-02-01T13:18:41.642Z,19.70
2018-02-01T13:19:46.563Z,19.80
2018-02-01T13:20:51.666Z,19.70
2018-02-01T13:21:56.553Z,19.80
2018-02-01T13:23:01.751Z,19.80
2018-02-01T13:24:06.963Z,19.80
2018-02-01T13:25:11.975Z,19.80
2018-02-01T13:26:16.896Z,19.70
2018-02-01T13:27:21.705Z,19.80
2018-02-01T13:28:26.659Z,19.80
2018-02-01T13:29:31.423Z,19.70
2018-02-01T13:30:36.407Z,19.70
2018-02-01T13:31:41.854Z,19.80
2018-02-01T13:32:46.850Z,19.70
2018-02-01T13:33:51.812Z,19.80
2018-02-01T13:34:56.627Z,19.70
2018-02-01T13:36:02.172Z,19.80
2018-02-01T13:37:07.210Z,19.80
2018-02-01T13:38:12.247Z,19.70
2018-02-01T13:39:17.235Z,19.70
2018-02-01T13:40:22.165Z,19.70
2018-02-01T13:41:27.116Z,19.70
2018-02-01T13:42:32.143Z,19.80
2018-02-01T13:43:37.122Z,19.80
2018-02-01T13:44:42.178Z,19.80
2018-02-01T13:45:47.402Z,19.80
2018-02-01T13:46:52.694Z,19.80
2018-02-01T13:47:57.904Z,19.80
2018-02-01T13:49:03.349Z,19.80
2018-02-01T13:50:08.688Z,19.80
2018-02-01T13:51:13.652Z,19.70
2018-02-01T13:52:18.471Z,19.80
2018-02-01T13:53:23.507Z,19.80
2018-02-01T13:54:28.667Z,19.80
2018-02-01T13:55:33.586Z,19.80
2018-02-01T13:56:38.660Z,19.80